Time;durP1;ratioP1;P1;durP2;ratioP2;P2;SDS_P1;SDS_P2;PMS_P1;PMS_P2;Temp;Humidity;BMP_temperature;BMP_pressure;BME280_temperature;BME280_humidity;BME280_pressure;Samples;Min_cycle;Max_cycle;Signal;HPM_P1;HPM_P2
2023/11/24 00:00:06;;;;;;;24.52;13.10;;;;;;;5.53;100.00;99584.25;5071800;28;20053;-43
2023/11/24 00:02:36;;;;;;;26.20;13.98;;;;;;;5.44;100.00;99577.63;5071609;28;20405;-44
2023/11/24 00:05:07;;;;;;;26.15;14.45;;;;;;;5.45;100.00;99569.59;5071724;28;20049;-42
2023/11/24 00:07:36;;;;;;;26.63;13.88;;;;;;;5.39;100.00;99572.53;5071436;28;20060;-41
2023/11/24 00:10:06;;;;;;;27.63;14.77;;;;;;;5.39;100.00;99563.75;5071420;28;20144;-41
2023/11/24 00:12:35;;;;;;;26.75;14.60;;;;;;;5.38;100.00;99547.03;5071281;28;20044;-41
2023/11/24 00:15:04;;;;;;;28.55;14.93;;;;;;;5.40;100.00;99545.19;5071172;28;20045;-41
2023/11/24 00:17:33;;;;;;;28.35;14.52;;;;;;;5.39;100.00;99532.88;5071351;28;20109;-43
2023/11/24 00:20:03;;;;;;;26.90;14.45;;;;;;;5.31;100.00;99519.19;5070876;28;20048;-41
2023/11/24 00:22:31;;;;;;;28.42;15.18;;;;;;;5.29;100.00;99528.13;5071035;28;20048;-43
2023/11/24 00:24:59;;;;;;;28.60;15.18;;;;;;;5.29;100.00;99525.47;5071120;28;20048;-41
2023/11/24 00:27:28;;;;;;;28.63;15.80;;;;;;;5.27;100.00;99501.75;5071190;28;20412;-43
2023/11/24 00:29:57;;;;;;;30.75;14.88;;;;;;;5.26;100.00;99496.56;5070964;28;20101;-43
2023/11/24 00:32:25;;;;;;;30.58;16.27;;;;;;;5.27;100.00;99480.59;5070847;28;20564;-42
2023/11/24 00:34:54;;;;;;;29.17;15.38;;;;;;;5.21;100.00;99474.75;5070819;28;20764;-42
2023/11/24 00:37:24;;;;;;;29.90;16.27;;;;;;;5.21;100.00;99475.63;5070764;28;20131;-42
2023/11/24 00:39:52;;;;;;;32.92;16.70;;;;;;;5.15;100.00;99466.22;5070687;28;20088;-42
2023/11/24 00:42:21;;;;;;;27.48;15.52;;;;;;;5.22;100.00;99471.22;5071061;28;20093;-42
2023/11/24 00:44:50;;;;;;;30.40;15.82;;;;;;;5.20;100.00;99465.13;5070963;28;20102;-43
2023/11/24 00:47:19;;;;;;;30.25;15.25;;;;;;;5.12;100.00;99458.44;5070484;28;20548;-42
2023/11/24 00:49:48;;;;;;;29.63;15.85;;;;;;;5.12;100.00;99453.16;5070006;28;20067;-41
2023/11/24 00:52:17;;;;;;;32.95;16.00;;;;;;;5.14;100.00;99446.00;5070946;28;20129;-42
2023/11/24 00:54:47;;;;;;;32.55;16.25;;;;;;;5.13;100.00;99456.66;5070863;28;20125;-43
2023/11/24 00:57:15;;;;;;;29.73;15.88;;;;;;;5.15;100.00;99452.16;5070786;28;20048;-43
2023/11/24 00:59:43;;;;;;;29.15;15.98;;;;;;;5.14;100.00;99451.28;5070771;28;20048;-43
2023/11/24 01:02:12;;;;;;;30.20;15.85;;;;;;;5.17;100.00;99447.63;5070614;28;20048;-43
2023/11/24 01:04:41;;;;;;;29.30;16.27;;;;;;;5.15;100.00;99449.50;5070738;28;20052;-41
2023/11/24 01:07:09;;;;;;;29.55;16.73;;;;;;;5.20;100.00;99451.91;5070886;28;20044;-41
2023/11/24 01:09:38;;;;;;;30.15;15.65;;;;;;;5.04;100.00;99447.41;5070785;28;20076;-42
2023/11/24 01:12:08;;;;;;;29.40;16.02;;;;;;;5.12;100.00;99444.38;5070969;28;20048;-42
2023/11/24 01:14:36;;;;;;;31.95;16.10;;;;;;;5.17;100.00;99439.69;5070754;28;20094;-43
2023/11/24 01:17:05;;;;;;;30.88;16.10;;;;;;;5.20;100.00;99436.03;5070807;28;20047;-41
2023/11/24 01:19:33;;;;;;;29.42;15.60;;;;;;;5.34;100.00;99428.25;5070514;28;20144;-42
2023/11/24 01:22:03;;;;;;;31.80;16.63;;;;;;;5.37;100.00;99431.59;5070663;28;20113;-43
2023/11/24 01:24:31;;;;;;;30.35;17.08;;;;;;;5.05;100.00;99421.81;5070294;28;20052;-42
2023/11/24 01:27:02;;;;;;;30.20;16.52;;;;;;;4.70;100.00;99426.22;5070446;28;20132;-42
2023/11/24 01:29:32;;;;;;;30.65;16.90;;;;;;;4.79;100.00;99431.91;5070351;28;20058;-42
2023/11/24 01:32:00;;;;;;;30.33;16.58;;;;;;;4.88;100.00;99420.03;5070301;28;20500;-42
2023/11/24 01:34:29;;;;;;;33.53;16.02;;;;;;;4.95;100.00;99405.56;5070475;28;20132;-42
2023/11/24 01:36:57;;;;;;;32.17;17.10;;;;;;;5.06;100.00;99397.09;5070458;28;20186;-42
2023/11/24 01:39:29;;;;;;;32.60;16.95;;;;;;;5.11;100.00;99387.97;5070138;28;20060;-42
2023/11/24 01:41:57;;;;;;;30.52;16.40;;;;;;;5.20;100.00;99375.22;5070172;28;20052;-42
2023/11/24 01:44:27;;;;;;;32.28;16.92;;;;;;;5.15;100.00;99363.13;5070152;28;20639;-42
2023/11/24 01:46:57;;;;;;;33.40;17.17;;;;;;;5.07;100.00;99357.38;5069238;28;20056;-42
2023/11/24 01:49:28;;;;;;;33.15;16.50;;;;;;;4.98;100.00;99357.84;5070134;28;20064;-42
2023/11/24 01:51:57;;;;;;;33.75;17.25;;;;;;;5.12;100.00;99359.78;5070237;28;20140;-44
2023/11/24 01:54:26;;;;;;;33.88;17.63;;;;;;;4.99;100.00;99354.25;5070193;28;20063;-42
2023/11/24 01:56:57;;;;;;;33.80;17.75;;;;;;;4.87;100.00;99337.25;5070279;28;20052;-41
2023/11/24 01:59:25;;;;;;;32.15;17.35;;;;;;;4.80;100.00;99329.72;5069952;28;20052;-43
2023/11/24 02:01:54;;;;;;;33.78;17.38;;;;;;;4.66;100.00;99334.84;5071987;28;20135;-42
2023/11/24 02:04:24;;;;;;;30.08;16.75;;;;;;;4.84;100.00;99329.50;5073670;28;20048;-43
2023/11/24 02:06:54;;;;;;;34.53;17.85;;;;;;;4.79;100.00;99335.94;5073516;28;20048;-41
2023/11/24 02:09:23;;;;;;;33.40;16.75;;;;;;;4.77;100.00;99325.44;5073412;28;20492;-42
2023/11/24 02:11:51;;;;;;;33.47;18.23;;;;;;;4.64;100.00;99327.00;5073462;28;20052;-42
2023/11/24 02:14:20;;;;;;;33.67;18.10;;;;;;;4.64;100.00;99305.88;5073604;28;20420;-42
2023/11/24 02:16:48;;;;;;;35.08;17.88;;;;;;;4.75;100.00;99284.19;5073443;28;20041;-43
2023/11/24 02:19:17;;;;;;;37.92;18.75;;;;;;;4.69;100.00;99281.84;5073299;28;20055;-42
2023/11/24 02:21:49;;;;;;;36.65;18.67;;;;;;;4.53;100.00;99268.56;5073501;28;20052;-42
2023/11/24 02:24:20;;;;;;;34.20;17.95;;;;;;;4.71;100.00;99258.84;5073174;28;20145;-42
2023/11/24 02:26:48;;;;;;;35.72;18.80;;;;;;;4.46;100.00;99254.84;5073385;28;20052;-42
2023/11/24 02:29:17;;;;;;;35.58;18.55;;;;;;;4.65;100.00;99253.91;5073220;28;20052;-51
2023/11/24 02:31:45;;;;;;;34.28;18.55;;;;;;;4.49;100.00;99254.69;5073175;28;20049;-41
2023/11/24 02:34:14;;;;;;;33.65;18.13;;;;;;;4.27;100.00;99248.78;5072929;28;20103;-42
2023/11/24 02:36:43;;;;;;;36.60;19.73;;;;;;;4.20;100.00;99242.97;5072987;28;20143;-47
2023/11/24 02:39:11;;;;;;;35.90;18.42;;;;;;;4.46;100.00;99249.56;5073023;28;20382;-43
2023/11/24 02:41:41;;;;;;;36.80;18.58;;;;;;;4.60;100.00;99241.78;5073048;28;20122;-43
2023/11/24 02:44:09;;;;;;;37.50;18.48;;;;;;;4.70;100.00;99228.09;5072820;28;20452;-41
2023/11/24 02:46:39;;;;;;;34.92;18.73;;;;;;;4.52;100.00;99217.53;5072717;28;20040;-42
2023/11/24 02:49:07;;;;;;;40.08;19.33;;;;;;;4.52;100.00;99222.81;5072921;28;20044;-41
2023/11/24 02:51:36;;;;;;;34.10;17.10;;;;;;;4.77;100.00;99211.00;5072925;28;20044;-42
2023/11/24 02:54:04;;;;;;;36.03;18.75;;;;;;;4.89;100.00;99199.75;5072782;28;20041;-41
2023/11/24 02:56:35;;;;;;;33.33;18.33;;;;;;;4.77;100.00;99201.28;5072744;28;20045;-42
2023/11/24 02:59:07;;;;;;;34.25;18.30;;;;;;;4.87;100.00;99201.63;5072648;28;20059;-43
2023/11/24 03:01:36;;;;;;;35.20;17.83;;;;;;;4.98;100.00;99209.00;5072621;28;20382;-42
2023/11/24 03:04:05;;;;;;;35.40;17.75;;;;;;;4.81;100.00;99207.25;5072600;28;20132;-42
2023/11/24 03:06:40;;;;;;;34.95;18.30;;;;;;;4.91;100.00;99204.97;5072434;28;20124;-44
2023/11/24 03:09:09;;;;;;;37.00;19.02;;;;;;;4.78;100.00;99199.47;5072208;28;20059;-41
2023/11/24 03:11:38;;;;;;;40.45;19.98;;;;;;;4.67;100.00;99188.63;5071622;28;20048;-41
2023/11/24 03:14:07;;;;;;;39.20;19.40;;;;;;;4.62;100.00;99190.66;5072245;28;20134;-42
2023/11/24 03:16:36;;;;;;;42.75;20.63;;;;;;;4.48;100.00;99176.41;5072561;28;20091;-41
2023/11/24 03:19:04;;;;;;;37.22;19.52;;;;;;;4.71;100.00;99163.75;5072215;28;20139;-42
2023/11/24 03:21:33;;;;;;;38.42;19.83;;;;;;;4.68;100.00;99158.66;5072195;28;20049;-42
2023/11/24 03:24:01;;;;;;;40.88;19.85;;;;;;;4.73;100.00;99154.84;5072011;28;20056;-43
2023/11/24 03:26:30;;;;;;;41.25;20.08;;;;;;;4.82;100.00;99156.94;5071888;28;20143;-43
2023/11/24 03:28:58;;;;;;;38.30;19.40;;;;;;;4.76;100.00;99152.03;5072022;28;20052;-43
2023/11/24 03:31:28;;;;;;;39.33;20.52;;;;;;;4.84;100.00;99149.81;5072178;28;20048;-43
2023/11/24 03:33:56;;;;;;;38.60;19.85;;;;;;;4.82;100.00;99141.09;5071769;28;20049;-42
2023/11/24 03:36:25;;;;;;;38.47;19.75;;;;;;;4.89;100.00;99125.78;5071724;28;20052;-41
2023/11/24 03:38:53;;;;;;;38.17;19.67;;;;;;;4.86;100.00;99110.94;5071527;28;20082;-42
2023/11/24 03:41:22;;;;;;;37.83;20.67;;;;;;;4.79;100.00;99104.28;5071661;28;20140;-43
2023/11/24 03:43:50;;;;;;;39.25;20.42;;;;;;;5.02;100.00;99116.25;5071806;28;20045;-41
2023/11/24 03:46:18;;;;;;;39.03;19.30;;;;;;;4.91;100.00;99108.03;5071589;28;20044;-42
2023/11/24 03:48:48;;;;;;;42.47;21.85;;;;;;;4.73;100.00;99109.03;5071539;28;20040;-41
2023/11/24 03:51:18;;;;;;;40.88;20.35;;;;;;;4.51;100.00;99104.06;5071480;28;20128;-42
2023/11/24 03:53:46;;;;;;;39.97;20.33;;;;;;;4.58;100.00;99094.91;5071406;28;20088;-41
2023/11/24 03:56:15;;;;;;;45.42;21.27;;;;;;;4.74;100.00;99094.94;5071151;28;20499;-44
2023/11/24 03:58:43;;;;;;;42.45;20.38;;;;;;;4.70;100.00;99088.09;5071594;28;20059;-42
2023/11/24 04:01:15;;;;;;;37.30;19.55;;;;;;;4.70;100.00;99093.38;5071264;28;20052;-44
2023/11/24 04:03:46;;;;;;;41.30;20.02;;;;;;;4.89;100.00;99089.63;5071165;28;20118;-43
2023/11/24 04:06:16;;;;;;;36.45;19.08;;;;;;;4.93;100.00;99077.13;5071412;28;20044;-42
2023/11/24 04:08:44;;;;;;;40.28;19.55;;;;;;;4.68;100.00;99069.69;5071429;28;20049;-41
2023/11/24 04:11:12;;;;;;;36.42;19.52;;;;;;;4.80;100.00;99069.00;5071392;28;20040;-42
2023/11/24 04:13:41;;;;;;;36.30;19.58;;;;;;;4.80;100.00;99057.59;5071055;28;20442;-43
2023/11/24 04:16:09;;;;;;;38.63;19.67;;;;;;;4.79;100.00;99040.03;5071318;28;20080;-42
2023/11/24 04:18:38;;;;;;;40.58;20.00;;;;;;;4.82;100.00;99039.84;5071111;28;20047;-43
2023/11/24 04:21:06;;;;;;;40.25;20.00;;;;;;;4.83;100.00;99037.16;5071320;28;20148;-42
2023/11/24 04:23:36;;;;;;;40.78;20.33;;;;;;;4.69;100.00;99039.69;5070512;28;20045;-41
2023/11/24 04:26:06;;;;;;;40.80;21.60;;;;;;;4.80;100.00;99032.00;5071177;28;20053;-43
2023/11/24 04:28:35;;;;;;;36.55;19.95;;;;;;;4.82;100.00;99042.50;5071168;28;20041;-42
2023/11/24 04:31:03;;;;;;;40.33;20.42;;;;;;;4.62;100.00;99040.09;5070947;28;20048;-43
2023/11/24 04:33:31;;;;;;;41.08;21.02;;;;;;;4.75;100.00;99035.88;5070992;28;20135;-43
2023/11/24 04:35:59;;;;;;;40.88;20.25;;;;;;;4.76;100.00;99040.22;5071174;28;20151;-43
2023/11/24 04:38:28;;;;;;;39.38;19.63;;;;;;;4.86;100.00;99030.84;5071153;28;20102;-41
2023/11/24 04:40:58;;;;;;;40.28;20.63;;;;;;;4.77;100.00;99020.78;5070998;28;20049;-43
2023/11/24 04:43:27;;;;;;;38.97;19.77;;;;;;;4.67;100.00;99006.38;5070997;28;20080;-43
2023/11/24 04:45:55;;;;;;;38.30;19.92;;;;;;;4.72;100.00;99004.31;5071052;28;20044;-42
2023/11/24 04:48:24;;;;;;;39.10;19.95;;;;;;;4.58;100.00;98994.53;5071262;28;20102;-42
2023/11/24 04:50:53;;;;;;;40.13;20.67;;;;;;;4.65;100.00;98995.06;5071194;28;20040;-43
2023/11/24 04:53:22;;;;;;;44.58;21.35;;;;;;;4.47;100.00;98997.78;5070986;28;20051;-42
2023/11/24 04:55:50;;;;;;;43.47;22.08;;;;;;;4.36;100.00;98989.59;5071063;28;20045;-41
2023/11/24 04:58:20;;;;;;;48.78;23.27;;;;;;;4.44;100.00;98991.78;5070737;28;20148;-42
2023/11/24 05:00:48;;;;;;;44.05;21.95;;;;;;;4.54;100.00;98978.03;5071252;28;20040;-41
2023/11/24 05:03:17;;;;;;;42.65;21.27;;;;;;;4.49;100.00;98977.41;5071067;28;20386;-43
2023/11/24 05:05:45;;;;;;;42.42;21.33;;;;;;;4.67;100.00;98979.97;5070890;28;20048;-42
2023/11/24 05:08:14;;;;;;;41.35;20.75;;;;;;;4.55;100.00;98974.44;5070737;28;20045;-44
2023/11/24 05:10:42;;;;;;;42.90;21.20;;;;;;;4.76;100.00;98968.88;5071143;28;20062;-42
2023/11/24 05:13:11;;;;;;;45.05;21.80;;;;;;;4.69;100.00;98964.88;5070950;28;20048;-43
2023/11/24 05:15:40;;;;;;;42.85;21.52;;;;;;;4.70;100.00;98962.16;5070922;28;20102;-42
2023/11/24 05:18:09;;;;;;;41.47;20.50;;;;;;;4.81;100.00;98969.47;5071013;28;20051;-43
2023/11/24 05:20:37;;;;;;;40.55;20.73;;;;;;;4.84;100.00;98959.59;5070937;28;20123;-43
2023/11/24 05:23:06;;;;;;;39.92;20.13;;;;;;;4.92;100.00;98950.34;5070602;28;20494;-42
2023/11/24 05:25:35;;;;;;;39.05;19.40;;;;;;;5.09;100.00;98953.72;5070316;28;20096;-43
2023/11/24 05:28:03;;;;;;;43.00;21.45;;;;;;;5.10;100.00;98936.06;5070677;28;20041;-44
2023/11/24 05:30:32;;;;;;;40.05;19.65;;;;;;;5.07;100.00;98942.38;5070638;28;20186;-42
2023/11/24 05:33:02;;;;;;;38.38;19.10;;;;;;;5.11;100.00;98932.47;5070879;28;20049;-42
2023/11/24 05:35:30;;;;;;;39.47;19.70;;;;;;;5.25;100.00;98926.41;5072282;28;20049;-42
2023/11/24 05:37:59;;;;;;;39.50;19.58;;;;;;;5.15;100.00;98912.88;5074486;28;20045;-42
2023/11/24 05:40:28;;;;;;;41.72;19.98;;;;;;;5.14;100.00;98898.81;5074370;28;20045;-42
2023/11/24 05:42:56;;;;;;;39.20;20.33;;;;;;;5.27;100.00;98890.13;5074524;28;20520;-45
2023/11/24 05:45:25;;;;;;;38.10;20.15;;;;;;;5.20;100.00;98876.41;5074567;28;20054;-42
2023/11/24 05:47:53;;;;;;;39.97;20.45;;;;;;;5.18;100.00;98880.97;5074730;28;20128;-43
2023/11/24 05:50:24;;;;;;;36.38;19.27;;;;;;;5.18;100.00;98878.31;5074624;28;20040;-42
2023/11/24 05:52:52;;;;;;;37.63;20.20;;;;;;;5.30;100.00;98882.00;5074492;28;20070;-44
2023/11/24 05:55:20;;;;;;;38.33;19.42;;;;;;;5.34;100.00;98875.59;5074600;28;20051;-42
2023/11/24 05:57:48;;;;;;;35.45;19.13;;;;;;;5.39;100.00;98882.31;5073990;28;20477;-43
2023/11/24 06:00:18;;;;;;;34.65;18.23;;;;;;;5.39;100.00;98886.75;5073900;28;20044;-42
2023/11/24 06:02:47;;;;;;;33.58;17.30;;;;;;;5.49;100.00;98881.75;5073997;28;20444;-44
2023/11/24 06:05:16;;;;;;;37.55;19.70;;;;;;;5.52;100.00;98895.66;5073938;28;20048;-41
2023/11/24 06:07:46;;;;;;;37.33;19.60;;;;;;;5.53;100.00;98889.41;5074058;28;20098;-44
2023/11/24 06:10:20;;;;;;;33.90;18.15;;;;;;;5.52;100.00;98889.50;5073878;28;20390;-43
2023/11/24 06:12:48;;;;;;;39.63;21.15;;;;;;;5.56;100.00;98889.22;5073634;28;20084;-43
2023/11/24 06:15:17;;;;;;;43.20;21.20;;;;;;;5.56;100.00;98891.00;5073665;28;20127;-43
2023/11/24 06:17:48;;;;;;;40.35;21.30;;;;;;;5.54;100.00;98893.75;5073611;28;20084;-43
2023/11/24 06:20:16;;;;;;;42.45;20.70;;;;;;;5.63;100.00;98882.63;5073840;28;20080;-42
2023/11/24 06:22:47;;;;;;;45.63;22.58;;;;;;;5.58;100.00;98903.19;5073468;28;20052;-42
2023/11/24 06:25:15;;;;;;;41.38;20.42;;;;;;;5.48;100.00;98915.28;5073535;28;20110;-43
2023/11/24 06:27:44;;;;;;;43.00;21.35;;;;;;;5.47;100.00;98895.91;5073118;28;20498;-42
2023/11/24 06:30:13;;;;;;;38.70;21.05;;;;;;;5.62;100.00;98894.16;5073338;28;20786;-43
2023/11/24 06:32:41;;;;;;;40.20;21.27;;;;;;;5.69;100.00;98903.41;5073125;28;20048;-42
2023/11/24 06:35:10;;;;;;;38.72;20.83;;;;;;;5.56;100.00;98897.16;5071851;28;20044;-42
2023/11/24 06:37:40;;;;;;;43.63;21.63;;;;;;;5.53;100.00;98889.41;5072776;28;20055;-41
2023/11/24 06:40:13;;;;;;;45.60;21.67;;;;;;;5.53;100.00;98900.00;5072574;28;20131;-44
2023/11/24 06:42:42;;;;;;;;;;;;;;;5.54;100.00;98906.13;5073433;28;20053;-42
2023/11/24 06:45:12;;;;;;;40.47;20.13;;;;;;;5.57;100.00;98909.44;5073015;28;19920;-44
2023/11/24 06:47:41;;;;;;;38.72;20.98;;;;;;;5.53;100.00;98900.00;5072226;28;20040;-43
2023/11/24 06:50:12;;;;;;;40.53;20.85;;;;;;;5.73;100.00;98912.84;5072706;28;20044;-43
2023/11/24 06:52:40;;;;;;;40.78;20.38;;;;;;;5.80;100.00;98912.47;5072673;28;20044;-43
2023/11/24 06:55:15;;;;;;;41.33;21.15;;;;;;;5.59;100.00;98915.47;5072790;28;20143;-42
2023/11/24 06:57:43;;;;;;;44.30;22.33;;;;;;;5.41;100.00;98916.63;5084333;28;20508;-42
2023/11/24 07:00:17;;;;;;;45.03;22.65;;;;;;;5.45;100.00;98924.25;5072325;28;20452;-43
2023/11/24 07:02:46;;;;;;;41.10;22.60;;;;;;;5.37;100.00;98917.72;5072042;28;20056;-44
2023/11/24 07:05:15;;;;;;;46.45;23.85;;;;;;;5.25;100.00;98921.09;5078057;28;20121;-42
2023/11/24 07:07:43;;;;;;;47.08;23.73;;;;;;;5.14;100.00;98927.88;5085967;28;20044;-43
2023/11/24 07:10:13;;;;;;;45.85;23.75;;;;;;;5.19;100.00;98938.16;5092903;28;20559;-42
2023/11/24 07:12:43;;;;;;;49.47;24.35;;;;;;;5.36;100.00;98926.59;5092746;28;20103;-42
2023/11/24 07:15:12;;;;;;;42.75;22.58;;;;;;;5.57;100.00;98933.22;5092814;28;20052;-42
2023/11/24 07:17:40;;;;;;;44.63;22.38;;;;;;;5.75;100.00;98921.53;5093182;28;20139;-42
2023/11/24 07:20:11;;;;;;;42.20;23.20;;;;;;;5.91;100.00;98921.47;5092702;28;20048;-42
2023/11/24 07:22:41;;;;;;;43.70;23.00;;;;;;;5.93;100.00;98931.97;5092690;28;20048;-42
2023/11/24 07:25:12;;;;;;;46.72;22.85;;;;;;;5.99;100.00;98937.75;5092594;28;20058;-42
2023/11/24 07:27:42;;;;;;;40.67;20.92;;;;;;;6.10;100.00;98939.72;5092173;28;20078;-43
2023/11/24 07:30:12;;;;;;;46.20;22.05;;;;;;;6.13;100.00;98941.31;5090664;28;20044;-43
2023/11/24 07:32:40;;;;;;;44.22;22.63;;;;;;;6.21;100.00;98953.13;5092772;28;20051;-42
2023/11/24 07:35:10;;;;;;;44.17;24.13;;;;;;;6.10;100.00;98973.28;5092241;28;20477;-42
2023/11/24 07:37:38;;;;;;;40.95;22.00;;;;;;;6.06;100.00;98982.34;5092553;28;20055;-41
2023/11/24 07:40:13;;;;;;;43.78;22.23;;;;;;;6.01;100.00;98964.09;5092438;28;20458;-42
2023/11/24 07:42:46;;;;;;;39.67;21.35;;;;;;;6.09;100.00;98961.84;5092087;28;20392;-42
2023/11/24 07:45:15;;;;;;;42.83;22.30;;;;;;;6.03;100.00;98959.56;5091890;28;20048;-42
2023/11/24 07:47:44;;;;;;;39.47;20.75;;;;;;;6.22;100.00;98957.47;5091878;28;20366;-41
2023/11/24 07:50:12;;;;;;;34.08;18.40;;;;;;;6.38;100.00;98952.06;5092107;28;20385;-42
2023/11/24 07:52:43;;;;;;;30.70;16.38;;;;;;;6.55;100.00;98948.31;5091856;28;20077;-42
2023/11/24 07:55:13;;;;;;;21.35;10.95;;;;;;;6.74;100.00;98935.56;5091752;28;20459;-42
2023/11/24 07:57:46;;;;;;;12.45;6.22;;;;;;;7.03;100.00;98924.84;5091696;28;20040;-44
2023/11/24 08:00:17;;;;;;;10.83;4.83;;;;;;;7.33;100.00;98929.91;5091500;28;20484;-41
2023/11/24 08:02:45;;;;;;;8.38;4.35;;;;;;;7.51;100.00;98933.09;5091950;28;20392;-41
2023/11/24 08:05:14;;;;;;;8.60;3.95;;;;;;;7.65;100.00;98933.03;5091928;28;20080;-41
2023/11/24 08:07:44;;;;;;;7.68;4.13;;;;;;;7.80;100.00;98933.75;5091699;28;20122;-42
2023/11/24 08:10:12;;;;;;;7.82;3.50;;;;;;;7.75;100.00;98934.09;5091630;28;20047;-44
2023/11/24 08:12:41;;;;;;;8.20;3.58;;;;;;;7.97;100.00;98936.09;5091686;28;20063;-42
2023/11/24 08:15:12;;;;;;;7.45;3.60;;;;;;;7.97;100.00;98938.75;5091972;28;20185;-42
2023/11/24 08:17:41;;;;;;;8.77;4.05;;;;;;;8.02;100.00;98941.94;5091790;28;20067;-42
2023/11/24 08:20:10;;;;;;;8.10;3.95;;;;;;;8.18;100.00;98939.03;5091789;28;20047;-41
2023/11/24 08:22:39;;;;;;;8.13;3.80;;;;;;;8.10;100.00;98936.06;5091430;28;20052;-42
2023/11/24 08:25:10;;;;;;;7.07;3.83;;;;;;;8.25;100.00;98945.59;5091056;28;20048;-42
2023/11/24 08:27:40;;;;;;;11.38;3.80;;;;;;;8.16;100.00;98943.59;5091674;28;20263;-42
2023/11/24 08:30:11;;;;;;;7.13;3.50;;;;;;;8.21;100.00;98937.00;5091599;28;20048;-42
2023/11/24 08:32:41;;;;;;;6.63;3.08;;;;;;;8.31;100.00;98946.03;5091753;28;20161;-42
2023/11/24 08:35:14;;;;;;;10.55;3.97;;;;;;;8.34;100.00;98931.66;5091538;28;20044;-42
2023/11/24 08:37:42;;;;;;;7.18;3.00;;;;;;;8.40;100.00;98928.59;5091505;28;20536;-43
2023/11/24 08:40:14;;;;;;;7.28;2.95;;;;;;;8.51;100.00;98920.69;5091154;28;20135;-42
2023/11/24 08:42:44;;;;;;;6.78;3.17;;;;;;;8.53;100.00;98926.75;5091812;28;20074;-42
2023/11/24 08:45:14;;;;;;;9.32;3.10;;;;;;;8.67;100.00;98947.00;5091437;28;20135;-42
2023/11/24 08:47:44;;;;;;;8.93;2.88;;;;;;;8.78;100.00;98954.19;5091435;28;20048;-41
2023/11/24 08:50:13;;;;;;;5.47;2.22;;;;;;;8.78;100.00;98940.88;5091442;28;20135;-43
2023/11/24 08:52:41;;;;;;;7.25;2.40;;;;;;;9.01;100.00;98945.38;5091336;28;20055;-42
2023/11/24 08:55:10;;;;;;;10.18;2.35;;;;;;;9.02;100.00;98951.53;5091696;28;20044;-42
2023/11/24 08:57:38;;;;;;;4.18;1.80;;;;;;;8.91;100.00;98947.03;5091315;28;20055;-42
2023/11/24 09:00:11;;;;;;;4.25;2.00;;;;;;;9.05;100.00;98936.19;5091112;28;20430;-43
2023/11/24 09:02:40;;;;;;;3.83;1.75;;;;;;;9.26;100.00;98933.72;5089884;28;20040;-42
2023/11/24 09:05:11;;;;;;;4.90;1.67;;;;;;;9.34;100.00;98922.50;5091111;28;20381;-42
2023/11/24 09:07:39;;;;;;;4.00;1.80;;;;;;;9.54;100.00;98905.00;5091503;28;20067;-42
2023/11/24 09:10:09;;;;;;;6.57;1.95;;;;;;;9.46;100.00;98901.16;5093015;28;20079;-43
2023/11/24 09:12:37;;;;;;;2.47;1.10;;;;;;;9.30;100.00;98894.44;5096592;28;20127;-42
2023/11/24 09:15:06;;;;;;;2.58;1.10;;;;;;;9.42;100.00;98905.00;5095096;28;20078;-41
2023/11/24 09:17:35;;;;;;;1.77;0.88;;;;;;;9.46;100.00;98898.47;5095159;28;20116;-42
2023/11/24 09:20:08;;;;;;;4.35;1.33;;;;;;;9.80;100.00;98895.00;5094900;28;20091;-42
2023/11/24 09:22:38;;;;;;;3.75;0.93;;;;;;;9.80;100.00;98877.22;5095341;28;20052;-44
2023/11/24 09:25:08;;;;;;;4.70;1.30;;;;;;;10.01;100.00;98875.50;5094924;28;21116;-42
2023/11/24 09:27:36;;;;;;;4.10;1.15;;;;;;;10.08;100.00;98878.53;5095133;28;20047;-42
2023/11/24 09:30:08;;;;;;;2.78;0.95;;;;;;;9.99;100.00;98869.47;5094730;28;20455;-41
2023/11/24 09:32:37;;;;;;;8.35;1.80;;;;;;;10.26;100.00;98873.59;5095208;28;20126;-43
2023/11/24 09:35:08;;;;;;;2.65;1.00;;;;;;;10.25;100.00;98864.75;5095051;28;20131;-42
2023/11/24 09:37:38;;;;;;;2.70;0.77;;;;;;;10.20;100.00;98861.56;5095009;28;20097;-42
2023/11/24 09:40:12;;;;;;;4.15;1.60;;;;;;;10.46;100.00;98839.97;5094708;28;20044;-42
2023/11/24 09:42:44;;;;;;;2.70;0.85;;;;;;;10.46;100.00;98829.31;5094857;28;20410;-42
2023/11/24 09:45:17;;;;;;;7.15;1.13;;;;;;;10.30;100.00;98830.56;5094688;28;20093;-42
2023/11/24 09:47:49;;;;;;;2.58;0.88;;;;;;;10.12;100.00;98824.03;5095010;28;20040;-43
2023/11/24 09:50:23;;;;;;;7.13;1.20;;;;;;;10.17;100.00;98835.16;5094587;28;20508;-42
2023/11/24 09:52:56;;;;;;;5.82;0.85;;;;;;;10.01;100.00;98824.03;5094831;28;20133;-43
2023/11/24 09:55:25;;;;;;;3.83;0.90;;;;;;;9.96;100.00;98811.09;5094378;28;20461;-42
2023/11/24 09:57:55;;;;;;;4.18;0.93;;;;;;;9.95;100.00;98819.22;5094759;28;20416;-42
2023/11/24 10:00:26;;;;;;;4.15;0.98;;;;;;;10.06;100.00;98816.53;5094385;28;20046;-41
2023/11/24 10:02:59;;;;;;;4.32;0.80;;;;;;;10.00;100.00;98825.03;5094460;28;20083;-42
2023/11/24 10:05:28;;;;;;;3.38;1.13;;;;;;;10.01;100.00;98818.72;5094331;28;20044;-43
2023/11/24 10:07:59;;;;;;;1.38;0.85;;;;;;;10.07;100.00;98796.91;5094265;28;20097;-42
2023/11/24 10:10:28;;;;;;;2.70;0.98;;;;;;;10.12;100.00;98797.38;5094499;28;20063;-41
2023/11/24 10:12:59;;;;;;;4.68;1.10;;;;;;;9.96;100.00;98803.13;5094462;28;20044;-42
2023/11/24 10:15:28;;;;;;;5.75;1.20;;;;;;;10.15;100.00;98789.16;5094745;28;20390;-42
2023/11/24 10:17:57;;;;;;;3.70;0.80;;;;;;;10.12;100.00;98800.03;5095926;28;20415;-42
2023/11/24 10:20:28;;;;;;;3.10;0.90;;;;;;;9.87;100.00;98800.34;5095181;28;20067;-43
2023/11/24 10:23:00;;;;;;;5.35;0.90;;;;;;;9.79;100.00;98794.78;5093728;28;20056;-43
2023/11/24 10:25:34;;;;;;;3.80;1.10;;;;;;;9.72;100.00;98803.25;5094932;28;20096;-42
2023/11/24 10:28:06;;;;;;;3.97;1.08;;;;;;;9.86;100.00;98798.66;5094638;28;20098;-42
2023/11/24 10:30:35;;;;;;;5.38;1.48;;;;;;;9.41;100.00;98785.34;5094168;28;20125;-41
2023/11/24 10:33:05;;;;;;;5.30;1.23;;;;;;;9.35;100.00;98764.53;5094301;28;20050;-42
2023/11/24 10:35:33;;;;;;;5.80;1.48;;;;;;;9.37;100.00;98751.97;5094071;28;20044;-43
2023/11/24 10:38:04;;;;;;;3.05;1.10;;;;;;;9.40;100.00;98744.59;5094109;28;20469;-43
2023/11/24 10:40:33;;;;;;;3.92;1.35;;;;;;;9.33;100.00;98737.22;5094069;28;20044;-42
2023/11/24 10:43:04;;;;;;;4.80;1.63;;;;;;;9.25;100.00;98718.34;5093665;28;20044;-42
2023/11/24 10:45:34;;;;;;;3.53;0.73;;;;;;;8.96;100.00;98697.53;5093299;28;20056;-42
2023/11/24 10:48:09;;;;;;;4.82;1.05;;;;;;;9.05;100.00;98682.66;5093636;28;20044;-43
2023/11/24 10:50:42;;;;;;;4.80;1.27;;;;;;;8.98;100.00;98678.81;5093397;28;20113;-41
2023/11/24 10:53:19;;;;;;;5.72;1.15;;;;;;;9.13;100.00;98667.78;5093619;28;20097;-42
2023/11/24 10:55:49;;;;;;;5.07;0.98;;;;;;;9.27;100.00;98679.19;5093246;28;20431;-42
2023/11/24 10:58:18;;;;;;;4.10;1.25;;;;;;;9.27;100.00;98684.50;5093635;28;20382;-45
2023/11/24 11:00:46;;;;;;;3.10;0.80;;;;;;;9.00;100.00;98688.38;5093247;28;20055;-42
2023/11/24 11:03:16;;;;;;;3.70;1.02;;;;;;;9.17;100.00;98685.22;5093323;28;20205;-44
2023/11/24 11:05:56;;;;;;;2.42;1.05;;;;;;;9.12;100.00;98698.03;5093068;28;20460;-42
2023/11/24 11:08:34;;;;;;;4.75;1.40;;;;;;;9.19;100.00;98703.72;5093131;28;20435;-43
2023/11/24 11:11:34;;;;;;;3.03;1.17;;;;;;;9.08;100.00;98715.22;5093270;28;20051;-41
2023/11/24 11:14:05;;;;;;;4.30;1.48;;;;;;;8.93;100.00;98726.19;5092990;28;20048;-41
2023/11/24 11:16:37;;;;;;;6.05;1.38;;;;;;;8.85;100.00;98724.09;5092670;28;20127;-43
2023/11/24 11:19:31;;;;;;;2.20;0.90;;;;;;;8.78;100.00;98725.53;5092537;28;20135;-41
2023/11/24 11:22:00;;;;;;;3.25;1.20;;;;;;;8.60;100.00;98701.25;5092362;28;20506;-42
2023/11/24 11:24:30;;;;;;;3.05;1.10;;;;;;;8.35;100.00;98712.88;5092548;28;20413;-41
2023/11/24 11:26:59;;;;;;;4.05;1.30;;;;;;;8.42;100.00;98729.22;5092498;28;20410;-42
2023/11/24 11:29:31;;;;;;;4.25;1.30;;;;;;;8.17;100.00;98725.69;5092619;28;20044;-44
2023/11/24 11:32:01;;;;;;;4.15;1.00;;;;;;;8.30;100.00;98736.25;5092836;28;20059;-40